Time;durP1;ratioP1;P1;durP2;ratioP2;P2;SDS_P1;SDS_P2;PMS_P1;PMS_P2;Temp;Humidity;BMP_temperature;BMP_pressure;BME280_temperature;BME280_humidity;BME280_pressure;Samples;Min_cycle;Max_cycle;Signal;HPM_P1;HPM_P2
2020/12/06 00:00:33;;;;;;;41.17;31.87;;;;;;;-1.06;100.00;96312.22;4972371;28;20229;-71
2020/12/06 00:03:00;;;;;;;40.70;31.07;;;;;;;-1.10;100.00;96310.84;4966453;28;20444;-68
2020/12/06 00:05:27;;;;;;;35.20;27.57;;;;;;;-1.02;100.00;96302.34;4970994;28;20394;-68
2020/12/06 00:07:54;;;;;;;45.63;36.47;;;;;;;-0.86;100.00;96301.84;4962749;28;20217;-67
2020/12/06 00:10:21;;;;;;;36.53;28.03;;;;;;;-0.70;100.00;96295.31;4964468;28;20653;-68
2020/12/06 00:12:48;;;;;;;42.13;32.67;;;;;;;-0.69;100.00;96284.75;4927179;28;20482;-68
2020/12/06 00:15:16;;;;;;;43.43;30.17;;;;;;;-0.56;100.00;96265.47;4950980;28;20233;-69
2020/12/06 00:17:43;;;;;;;35.37;27.80;;;;;;;-0.45;100.00;96263.53;4961575;28;20230;-68
2020/12/06 00:20:11;;;;;;;37.63;28.33;;;;;;;-0.48;100.00;96263.00;4964282;28;20202;-66
2020/12/06 00:22:38;;;;;;;35.97;29.83;;;;;;;-0.45;100.00;96253.13;4955892;28;20521;-71
2020/12/06 00:25:06;;;;;;;39.13;30.00;;;;;;;-0.57;100.00;96242.97;4967818;28;20851;-69
2020/12/06 00:27:33;;;;;;;42.90;32.27;;;;;;;-0.62;100.00;96236.41;4934355;28;21305;-73
2020/12/06 00:30:00;;;;;;;39.67;30.67;;;;;;;-0.61;100.00;96245.88;4960839;28;20461;-68
2020/12/06 00:32:29;;;;;;;41.50;31.73;;;;;;;-0.70;100.00;96257.09;4960137;28;21344;-73
2020/12/06 00:34:56;;;;;;;38.43;29.07;;;;;;;-0.83;100.00;96253.94;4962942;28;20476;-68
2020/12/06 00:37:23;;;;;;;41.67;29.47;;;;;;;-0.84;100.00;96275.72;4953472;28;20627;-73
2020/12/06 00:39:50;;;;;;;50.37;35.33;;;;;;;-0.91;100.00;96289.25;4964740;28;20221;-72
2020/12/06 00:42:17;;;;;;;41.73;31.33;;;;;;;-0.98;100.00;96290.72;4929871;28;20217;-73
2020/12/06 00:44:44;;;;;;;43.80;29.63;;;;;;;-1.03;100.00;96288.53;4977774;28;20479;-71
2020/12/06 00:47:11;;;;;;;39.10;31.27;;;;;;;-1.04;100.00;96283.47;4970650;28;20439;-71
2020/12/06 00:49:39;;;;;;;42.83;30.30;;;;;;;-1.03;100.00;96288.53;4977855;28;20216;-72
2020/12/06 00:52:06;;;;;;;39.87;29.40;;;;;;;-1.00;100.00;96300.44;4966545;28;20206;-69
2020/12/06 00:54:33;;;;;;;38.40;29.57;;;;;;;-0.92;100.00;96297.19;4960011;28;20261;-72
2020/12/06 00:57:00;;;;;;;38.33;28.83;;;;;;;-0.98;100.00;96301.13;4979867;28;20239;-68
2020/12/06 00:59:27;;;;;;;39.23;29.30;;;;;;;-1.00;100.00;96295.25;4938668;28;20447;-73
2020/12/06 01:01:54;;;;;;;38.63;28.13;;;;;;;-0.94;100.00;96281.72;4978859;28;20468;-72
2020/12/06 01:04:21;;;;;;;39.10;28.03;;;;;;;-0.93;100.00;96274.72;4964212;28;20463;-70
2020/12/06 01:06:49;;;;;;;36.30;28.47;;;;;;;-1.01;100.00;96283.19;4973890;28;20244;-72
2020/12/06 01:09:16;;;;;;;43.80;30.83;;;;;;;-0.81;100.00;96291.84;4963748;28;20237;-72
2020/12/06 01:11:43;;;;;;;36.97;27.80;;;;;;;-0.87;100.00;96302.81;4975568;28;20210;-70
2020/12/06 01:14:10;;;;;;;36.10;29.13;;;;;;;-0.89;100.00;96300.34;4942568;28;20233;-69
2020/12/06 01:16:37;;;;;;;35.77;25.80;;;;;;;-0.92;100.00;96302.38;4979294;28;20457;-72
2020/12/06 01:19:04;;;;;;;35.50;26.73;;;;;;;-0.94;100.00;96309.50;4968032;28;20718;-69
2020/12/06 01:21:31;;;;;;;35.37;27.33;;;;;;;-0.89;100.00;96315.94;4979244;28;20498;-72
2020/12/06 01:23:59;;;;;;;33.63;26.43;;;;;;;-0.86;100.00;96317.44;4982271;28;20209;-71
2020/12/06 01:26:26;;;;;;;37.30;26.60;;;;;;;-0.82;100.00;96305.00;4966408;28;20241;-72
2020/12/06 01:28:53;;;;;;;33.60;26.20;;;;;;;-0.64;100.00;96320.78;4977588;28;20558;-71
2020/12/06 01:31:20;;;;;;;31.43;26.10;;;;;;;-0.70;100.00;96319.53;4936855;28;21009;-73
2020/12/06 01:33:47;;;;;;;30.03;25.87;;;;;;;-0.79;100.00;96315.16;4971199;28;20209;-71
2020/12/06 01:36:14;;;;;;;36.67;25.87;;;;;;;-0.79;100.00;96325.53;4978997;28;20429;-72
2020/12/06 01:38:42;;;;;;;30.80;26.07;;;;;;;-0.81;100.00;96315.25;4974736;28;20221;-72
2020/12/06 01:41:10;;;;;;;36.10;26.53;;;;;;;-0.96;100.00;96295.81;4955009;28;20209;-69
2020/12/06 01:43:37;;;;;;;30.80;24.33;;;;;;;-0.78;100.00;96278.56;4977413;28;20210;-72
2020/12/06 01:46:04;;;;;;;28.60;23.07;;;;;;;-0.78;100.00;96264.75;4940515;28;20245;-69
2020/12/06 01:48:31;;;;;;;33.20;26.20;;;;;;;-0.83;100.00;96253.94;4966119;28;20422;-72
2020/12/06 01:50:58;;;;;;;32.47;27.60;;;;;;;-0.92;100.00;96264.22;4975885;28;20210;-71
2020/12/06 01:53:25;;;;;;;29.90;26.27;;;;;;;-1.06;100.00;96261.97;4972971;28;20698;-72
2020/12/06 01:55:53;;;;;;;32.33;26.27;;;;;;;-1.11;100.00;96254.59;4975981;28;20225;-72
2020/12/06 01:58:25;;;;;;;31.67;25.30;;;;;;;-1.09;100.00;96265.69;4959236;28;20485;-69
2020/12/06 02:00:52;;;;;;;33.33;26.33;;;;;;;-1.13;100.00;96255.66;4976125;28;20701;-72
2020/12/06 02:03:19;;;;;;;32.77;26.67;;;;;;;-1.17;100.00;96249.91;4932837;28;20218;-68
2020/12/06 02:05:46;;;;;;;31.00;25.53;;;;;;;-1.19;100.00;96231.84;4979928;28;20268;-72
2020/12/06 02:08:14;;;;;;;35.67;27.67;;;;;;;-1.22;100.00;96239.94;4972351;28;20208;-69
2020/12/06 02:10:41;;;;;;;36.77;28.37;;;;;;;-1.28;100.00;96232.66;4974259;28;20452;-71
2020/12/06 02:13:08;;;;;;;32.63;27.03;;;;;;;-1.29;100.00;96236.22;4960406;28;20441;-69
2020/12/06 02:15:37;;;;;;;33.83;27.27;;;;;;;-1.13;100.00;96259.09;4977734;28;20229;-72
2020/12/06 02:18:04;;;;;;;37.40;26.87;;;;;;;-1.08;100.00;96254.31;4940291;28;20939;-68
2020/12/06 02:20:32;;;;;;;32.53;24.93;;;;;;;-1.13;100.00;96245.28;4968294;28;20296;-72
2020/12/06 02:22:59;;;;;;;33.07;25.67;;;;;;;-1.21;100.00;96245.94;4976944;28;20717;-73
2020/12/06 02:25:26;;;;;;;32.27;26.03;;;;;;;-1.30;100.00;96231.97;4971765;28;20236;-72
2020/12/06 02:27:53;;;;;;;36.73;27.77;;;;;;;-1.37;100.00;96223.03;4981995;28;20236;-72
2020/12/06 02:30:21;;;;;;;34.50;27.47;;;;;;;-1.33;100.00;96207.06;4959054;28;20244;-69
2020/12/06 02:32:48;;;;;;;31.90;26.77;;;;;;;-1.33;100.00;96216.63;4972339;28;20586;-72
2020/12/06 02:35:15;;;;;;;32.67;25.50;;;;;;;-1.26;100.00;96215.16;4927597;28;20475;-68
2020/12/06 02:37:43;;;;;;;34.47;27.67;;;;;;;-1.27;100.00;96216.13;4982113;28;20221;-72
2020/12/06 02:40:10;;;;;;;32.73;25.23;;;;;;;-1.12;100.00;96232.16;4974001;28;20217;-68
2020/12/06 02:42:37;;;;;;;29.33;25.77;;;;;;;-1.14;100.00;96225.44;4973370;28;21079;-71
2020/12/06 02:45:04;;;;;;;35.70;27.67;;;;;;;-1.08;100.00;96220.53;4958322;28;20472;-69
2020/12/06 02:47:31;;;;;;;37.10;26.60;;;;;;;-1.12;100.00;96228.72;4973422;28;20784;-72
2020/12/06 02:49:58;;;;;;;34.23;27.20;;;;;;;-1.13;100.00;96203.69;4929975;28;20499;-72
2020/12/06 02:52:25;;;;;;;36.47;27.13;;;;;;;-1.09;100.00;96207.66;4978622;28;20280;-73
2020/12/06 02:54:53;;;;;;;41.10;27.53;;;;;;;-1.07;100.00;96206.56;4977329;28;20641;-72
2020/12/06 02:57:20;;;;;;;38.50;28.10;;;;;;;-1.17;100.00;96188.34;4970162;28;20868;-71
2020/12/06 02:59:47;;;;;;;40.00;29.30;;;;;;;-1.18;100.00;96189.31;4967000;28;20206;-72
2020/12/06 03:02:14;;;;;;;42.17;28.27;;;;;;;-1.09;100.00;96179.88;4971022;28;20209;-72
2020/12/06 03:04:41;;;;;;;40.97;27.73;;;;;;;-1.12;100.00;96203.56;4935686;28;20245;-71
2020/12/06 03:07:09;;;;;;;39.50;28.43;;;;;;;-1.17;100.00;96205.72;4961747;28;20721;-69
2020/12/06 03:09:36;;;;;;;37.37;26.30;;;;;;;-1.07;100.00;96216.13;4974905;28;20202;-72
2020/12/06 03:12:04;;;;;;;38.23;26.53;;;;;;;-1.14;100.00;96204.63;4970443;28;20209;-69
2020/12/06 03:14:31;;;;;;;39.10;26.83;;;;;;;-1.06;100.00;96204.78;4974062;28;20811;-71
2020/12/06 03:16:58;;;;;;;38.83;26.57;;;;;;;-0.98;100.00;96204.09;4965087;28;20218;-68
2020/12/06 03:19:26;;;;;;;47.60;28.67;;;;;;;-1.14;100.00;96191.63;4936441;28;20884;-72
2020/12/06 03:21:53;;;;;;;39.37;26.97;;;;;;;-1.19;100.00;96205.88;4958258;28;20220;-72
2020/12/06 03:24:20;;;;;;;48.90;29.97;;;;;;;-1.13;100.00;96199.31;4968114;28;20741;-72
2020/12/06 03:26:47;;;;;;;39.97;26.87;;;;;;;-1.12;100.00;96207.91;4972613;28;20209;-72
2020/12/06 03:29:15;;;;;;;36.27;26.40;;;;;;;-0.97;100.00;96201.34;4972015;28;20980;-72
2020/12/06 03:31:42;;;;;;;33.80;25.97;;;;;;;-1.04;100.00;96206.28;4965774;28;20453;-72
2020/12/06 03:34:09;;;;;;;38.93;26.50;;;;;;;-0.91;100.00;96213.00;4972353;28;20468;-69
2020/12/06 03:36:36;;;;;;;38.63;26.13;;;;;;;-0.96;100.00;96221.19;4947969;28;20225;-70
2020/12/06 03:39:03;;;;;;;34.87;25.13;;;;;;;-1.08;100.00;96222.28;4977993;28;20248;-68
2020/12/06 03:41:30;;;;;;;34.90;25.50;;;;;;;-1.06;100.00;96213.41;4974492;28;20869;-71
2020/12/06 03:43:57;;;;;;;43.10;27.53;;;;;;;-1.05;100.00;96222.03;4972955;28;20201;-69
2020/12/06 03:46:25;;;;;;;41.60;27.13;;;;;;;-1.05;100.00;96206.41;4965213;28;21556;-72
2020/12/06 03:48:52;;;;;;;57.47;29.53;;;;;;;-1.08;100.00;96188.50;4971293;28;20450;-71
2020/12/06 03:51:19;;;;;;;39.13;27.53;;;;;;;-1.09;100.00;96182.47;4938223;28;20278;-72
2020/12/06 03:53:46;;;;;;;41.50;27.10;;;;;;;-1.03;100.00;96191.50;4976238;28;20468;-72
2020/12/06 03:56:13;;;;;;;36.20;27.23;;;;;;;-0.96;100.00;96191.78;4972843;28;20475;-69
2020/12/06 03:58:40;;;;;;;34.97;26.50;;;;;;;-1.09;100.00;96194.66;4975088;28;20237;-72
2020/12/06 04:01:07;;;;;;;57.00;28.80;;;;;;;-1.11;100.00;96186.16;4973464;28;20260;-68
2020/12/06 04:03:35;;;;;;;44.53;28.00;;;;;;;-0.82;100.00;96187.97;4964998;28;20218;-72
2020/12/06 04:06:02;;;;;;;51.53;29.07;;;;;;;-1.03;100.00;96194.09;4936307;28;20484;-68
2020/12/06 04:08:29;;;;;;;57.13;28.67;;;;;;;-1.02;100.00;96198.34;4981120;28;20255;-72
2020/12/06 04:10:56;;;;;;;50.87;27.90;;;;;;;-1.14;100.00;96215.84;4972417;28;20233;-69
2020/12/06 04:13:23;;;;;;;60.30;28.20;;;;;;;-1.22;100.00;96224.31;4966424;28;20439;-71
2020/12/06 04:15:50;;;;;;;50.17;26.53;;;;;;;-1.25;100.00;96222.00;4971148;28;20472;-73
2020/12/06 04:18:17;;;;;;;60.57;32.30;;;;;;;-1.14;100.00;96209.84;4969592;28;21106;-72
2020/12/06 04:20:45;;;;;;;56.07;29.57;;;;;;;-1.21;100.00;96210.38;4974851;28;20448;-72
2020/12/06 04:23:12;;;;;;;69.27;28.17;;;;;;;-0.97;100.00;96216.97;4938873;28;20630;-68
2020/12/06 04:25:39;;;;;;;42.90;27.00;;;;;;;-0.98;100.00;96217.91;4979486;28;20260;-69
2020/12/06 04:28:10;;;;;;;46.50;29.57;;;;;;;-1.04;100.00;96211.50;4972815;28;20209;-69
2020/12/06 04:30:37;;;;;;;39.50;28.13;;;;;;;-1.12;100.00;96202.72;4973494;28;20802;-71
2020/12/06 04:33:04;;;;;;;31.90;25.20;;;;;;;-1.13;100.00;96196.72;4971662;28;20833;-69
2020/12/06 04:35:31;;;;;;;36.40;27.07;;;;;;;-1.24;100.00;96173.41;4971450;28;20366;-72
2020/12/06 04:37:59;;;;;;;42.57;27.97;;;;;;;-1.12;100.00;96168.91;4940959;28;20229;-70
2020/12/06 04:40:26;;;;;;;41.63;28.87;;;;;;;-0.96;100.00;96177.00;4981755;28;20444;-72
2020/12/06 04:42:53;;;;;;;37.50;26.43;;;;;;;-1.17;100.00;96177.94;4979141;28;20445;-72
2020/12/06 04:45:20;;;;;;;35.43;27.23;;;;;;;-1.20;100.00;96167.81;4954963;28;20230;-67
2020/12/06 04:47:48;;;;;;;52.10;28.83;;;;;;;-1.04;100.00;96166.47;4966819;28;20659;-72
2020/12/06 04:50:25;;;;;;;37.90;27.93;;;;;;;-1.15;100.00;96162.19;4980362;28;20471;-72
2020/12/06 04:52:56;;;;;;;37.83;27.93;;;;;;;-1.14;100.00;96148.25;4928514;28;20991;-72
2020/12/06 04:55:27;;;;;;;39.33;27.10;;;;;;;-1.06;100.00;96144.97;4981575;28;20476;-67
2020/12/06 04:57:56;;;;;;;35.43;26.70;;;;;;;-0.98;100.00;96149.50;4971529;28;20746;-71
2020/12/06 05:00:31;;;;;;;30.43;25.67;;;;;;;-1.15;100.00;96151.81;4974220;28;20201;-67
2020/12/06 05:03:06;;;;;;;34.53;25.70;;;;;;;-1.21;100.00;96148.00;4976234;28;20483;-71
2020/12/06 05:05:35;;;;;;;36.67;26.63;;;;;;;-1.23;100.00;96149.06;4975229;28;20482;-69
2020/12/06 05:08:07;;;;;;;35.03;26.63;;;;;;;-1.24;100.00;96153.47;4928018;28;20456;-71
2020/12/06 05:10:40;;;;;;;36.63;25.37;;;;;;;-1.27;100.00;96140.75;4979099;28;20220;-69
2020/12/06 05:13:07;;;;;;;40.90;25.20;;;;;;;-1.31;100.00;96139.38;4975847;28;20453;-70
2020/12/06 05:15:35;;;;;;;41.03;27.90;;;;;;;-1.28;100.00;96133.06;4973328;28;20550;-69
2020/12/06 05:18:02;;;;;;;46.40;27.53;;;;;;;-1.37;100.00;96132.94;4973454;28;20499;-70
2020/12/06 05:20:29;;;;;;;53.07;26.60;;;;;;;-1.19;100.00;96153.03;4976614;28;20941;-68
2020/12/06 05:22:56;;;;;;;37.43;27.00;;;;;;;-1.36;100.00;96146.72;4961438;28;20456;-69
2020/12/06 05:25:24;;;;;;;40.83;27.43;;;;;;;-1.38;100.00;96159.88;4945259;28;20488;-68
2020/12/06 05:27:52;;;;;;;39.63;26.23;;;;;;;-1.31;100.00;96158.38;4976944;28;20202;-70
2020/12/06 05:30:19;;;;;;;45.07;25.20;;;;;;;-1.40;100.00;96164.38;4979863;28;20861;-70
2020/12/06 05:32:46;;;;;;;36.37;26.50;;;;;;;-1.27;100.00;96142.50;4983815;28;20562;-71
2020/12/06 05:35:14;;;;;;;49.80;25.30;;;;;;;-1.20;100.00;96144.44;4980714;28;20791;-72
2020/12/06 05:37:42;;;;;;;74.73;28.90;;;;;;;-1.24;100.00;96152.63;4962914;28;20698;-69
2020/12/06 05:40:16;;;;;;;65.13;28.87;;;;;;;-1.35;100.00;96143.16;4945910;28;20228;-68
2020/12/06 05:42:44;;;;;;;48.47;26.70;;;;;;;-1.48;100.00;96157.25;4977591;28;20481;-72
2020/12/06 05:45:12;;;;;;;31.37;22.70;;;;;;;-1.47;100.00;96155.50;4977344;28;20225;-71
2020/12/06 05:47:39;;;;;;;41.90;24.27;;;;;;;-1.40;100.00;96160.94;4972910;28;20445;-70
2020/12/06 05:50:07;;;;;;;28.87;23.97;;;;;;;-1.51;100.00;96160.13;4980638;28;20442;-71
2020/12/06 05:52:35;;;;;;;52.47;28.87;;;;;;;-1.39;100.00;96173.81;4956106;28;20808;-68
2020/12/06 05:55:03;;;;;;;45.27;26.97;;;;;;;-1.54;100.00;96182.94;4940009;28;20969;-72
2020/12/06 05:57:43;;;;;;;60.37;27.80;;;;;;;-1.58;100.00;96191.94;4985064;28;20933;-71
2020/12/06 06:00:12;;;;;;;48.37;28.50;;;;;;;-1.54;100.00;96199.34;4973853;28;20202;-72
2020/12/06 06:02:42;;;;;;;48.07;28.17;;;;;;;-1.51;100.00;96200.88;4975438;28;20443;-71
2020/12/06 06:05:13;;;;;;;33.83;26.30;;;;;;;-1.47;100.00;96190.06;4973470;28;20234;-71
2020/12/06 06:07:41;;;;;;;97.13;34.10;;;;;;;-1.55;100.00;96192.50;4958250;28;20217;-71
2020/12/06 06:10:11;;;;;;;65.97;27.60;;;;;;;-1.65;100.00;96199.47;4976387;28;20236;-71
2020/12/06 06:12:43;;;;;;;31.50;23.40;;;;;;;-1.63;100.00;96226.13;4937235;28;20460;-68
2020/12/06 06:15:10;;;;;;;49.30;27.70;;;;;;;-1.50;100.00;96205.94;4960152;28;20469;-66
2020/12/06 06:17:39;;;;;;;34.20;25.00;;;;;;;-1.54;100.00;96206.31;4977478;28;20452;-68
2020/12/06 06:20:06;;;;;;;42.47;26.00;;;;;;;-1.47;100.00;96199.66;4957057;28;20456;-69
2020/12/06 06:22:39;;;;;;;35.17;26.10;;;;;;;-1.54;100.00;96186.38;4986281;28;20471;-70
2020/12/06 06:25:07;;;;;;;66.23;30.13;;;;;;;-1.44;100.00;96195.94;4985916;28;20455;-72
2020/12/06 06:27:34;;;;;;;35.97;28.10;;;;;;;-1.41;100.00;96193.91;4960729;28;20221;-70
2020/12/06 06:30:02;;;;;;;44.77;29.67;;;;;;;-1.51;100.00;96186.09;5001172;28;20197;-68
2020/12/06 06:32:30;;;;;;;56.73;26.73;;;;;;;-1.45;100.00;96187.34;4994916;28;20452;-71
2020/12/06 06:34:59;;;;;;;30.77;24.47;;;;;;;-1.50;100.00;96194.72;4980658;28;20320;-70
2020/12/06 06:37:28;;;;;;;30.80;24.67;;;;;;;-1.55;100.00;96192.50;4984464;28;20213;-72
2020/12/06 06:39:58;;;;;;;36.77;25.07;;;;;;;-1.64;100.00;96186.34;4978199;28;21087;-70
2020/12/06 06:42:27;;;;;;;33.27;25.50;;;;;;;-1.46;100.00;96188.31;4955263;28;20212;-72
2020/12/06 06:45:02;;;;;;;51.63;38.00;;;;;;;-1.43;100.00;96193.25;5000666;28;20950;-72
2020/12/06 06:47:29;;;;;;;39.70;24.87;;;;;;;-1.55;100.00;96208.09;4996924;28;20819;-71
2020/12/06 06:49:58;;;;;;;31.57;26.23;;;;;;;-1.46;100.00;96207.31;4983068;28;20438;-72
2020/12/06 06:52:26;;;;;;;32.47;26.50;;;;;;;-1.53;100.00;96205.34;4996781;28;20535;-70
2020/12/06 06:54:55;;;;;;;33.53;26.87;;;;;;;-1.50;100.00;96197.31;4976873;28;20843;-68
2020/12/06 06:57:23;;;;;;;44.13;36.53;;;;;;;-1.50;100.00;96186.94;4958663;28;20456;-71
2020/12/06 06:59:52;;;;;;;36.53;26.73;;;;;;;-1.58;100.00;96187.59;5001972;28;20963;-68
2020/12/06 07:02:27;;;;;;;28.67;25.40;;;;;;;-1.60;100.00;96181.72;4992332;28;21054;-72
2020/12/06 07:04:54;;;;;;;29.40;24.67;;;;;;;-1.57;100.00;96204.81;4976022;28;20307;-72
2020/12/06 07:07:49;;;;;;;24.70;22.10;;;;;;;-1.49;100.00;96212.75;4979737;28;20452;-69
2020/12/06 07:10:17;;;;;;;35.27;25.07;;;;;;;-1.47;100.00;96221.25;4970189;28;20444;-69
2020/12/06 07:12:49;;;;;;;26.70;23.60;;;;;;;-1.57;100.00;96225.59;4938996;28;20210;-65
2020/12/06 07:15:17;;;;;;;30.63;24.23;;;;;;;-1.58;100.00;96221.38;4994386;28;20724;-68
2020/12/06 07:17:45;;;;;;;31.93;23.47;;;;;;;-1.56;100.00;96235.03;4984306;28;20200;-66
2020/12/06 07:20:13;;;;;;;30.67;25.57;;;;;;;-1.64;100.00;96240.88;4965392;28;20233;-65
2020/12/06 07:22:40;;;;;;;52.77;28.30;;;;;;;-1.62;100.00;96215.59;4991994;28;20485;-66
2020/12/06 07:25:10;;;;;;;30.57;23.83;;;;;;;-1.60;100.00;96215.47;4988556;28;20468;-66
2020/12/06 07:27:38;;;;;;;47.23;25.17;;;;;;;-1.64;100.00;96220.09;4980554;28;20468;-69
2020/12/06 07:30:06;;;;;;;29.97;23.70;;;;;;;-1.64;100.00;96220.09;4958602;28;20238;-66
2020/12/06 07:32:33;;;;;;;30.50;24.40;;;;;;;-1.42;100.00;96210.47;4993681;28;20865;-69
2020/12/06 07:35:01;;;;;;;31.27;23.40;;;;;;;-1.42;100.00;96197.47;4983557;28;20467;-67
2020/12/06 07:37:28;;;;;;;30.53;25.27;;;;;;;-1.46;100.00;96198.69;4975791;28;20453;-68
2020/12/06 07:39:55;;;;;;;28.20;23.50;;;;;;;-1.32;100.00;96193.13;4995715;28;20487;-68
2020/12/06 07:42:25;;;;;;;28.70;23.40;;;;;;;-1.34;100.00;96189.00;4976860;28;20456;-65
2020/12/06 07:44:53;;;;;;;28.10;23.07;;;;;;;-1.47;100.00;96187.47;4958471;28;20229;-68
2020/12/06 07:47:21;;;;;;;29.73;24.80;;;;;;;-1.38;100.00;96190.22;4991055;28;20201;-66
2020/12/06 07:49:49;;;;;;;28.53;23.97;;;;;;;-1.41;100.00;96180.94;4982078;28;20209;-68
2020/12/06 07:52:18;;;;;;;25.77;22.77;;;;;;;-1.31;100.00;96179.16;4982319;28;20216;-65
2020/12/06 07:54:58;;;;;;;28.03;22.13;;;;;;;-1.37;100.00;96182.31;4992488;28;20232;-66
2020/12/06 07:57:31;;;;;;;24.67;21.90;;;;;;;-1.21;100.00;96181.78;4991931;28;20432;-67
2020/12/06 07:59:59;;;;;;;23.47;20.87;;;;;;;-1.25;100.00;96183.00;4943077;28;20236;-67
2020/12/06 08:02:28;;;;;;;26.70;23.23;;;;;;;-1.18;100.00;96184.09;4978092;28;20791;-69
2020/12/06 08:04:56;;;;;;;33.47;24.83;;;;;;;-1.11;100.00;96179.19;4981154;28;20841;-69
2020/12/06 08:07:28;;;;;;;28.07;22.93;;;;;;;-1.06;100.00;96187.41;4976908;28;20455;-68
2020/12/06 08:09:55;;;;;;;26.23;23.43;;;;;;;-0.99;100.00;96197.25;4990230;28;20205;-69
2020/12/06 08:12:24;;;;;;;29.77;26.67;;;;;;;-0.94;100.00;96200.28;4993135;28;20835;-68
2020/12/06 08:15:00;;;;;;;36.10;32.23;;;;;;;-0.94;100.00;96205.47;4972697;28;20491;-69
2020/12/06 08:17:44;;;;;;;32.70;27.23;;;;;;;-0.95;100.00;96194.25;4963997;28;20494;-68
2020/12/06 08:20:13;;;;;;;32.57;27.30;;;;;;;-1.09;100.00;96199.84;4999001;28;20657;-67
2020/12/06 08:22:50;;;;;;;30.80;27.43;;;;;;;-0.99;100.00;96215.47;4997779;28;20391;-67
2020/12/06 08:25:19;;;;;;;29.13;25.47;;;;;;;-0.96;100.00;96226.41;4994012;28;20470;-67
2020/12/06 08:27:48;;;;;;;27.80;23.63;;;;;;;-0.80;100.00;96233.66;5002432;28;20196;-67
2020/12/06 08:30:17;;;;;;;28.13;23.90;;;;;;;-0.77;100.00;96235.19;4961689;28;20644;-68
2020/12/06 08:32:58;;;;;;;31.83;25.63;;;;;;;-0.96;100.00;96236.81;4999415;28;20208;-70
2020/12/06 08:35:39;;;;;;;28.33;24.23;;;;;;;-0.88;100.00;96236.13;5001138;28;20624;-69
2020/12/06 08:38:16;;;;;;;31.80;26.00;;;;;;;-0.70;100.00;96238.06;4999407;28;20204;-67
2020/12/06 08:41:00;;;;;;;30.70;26.10;;;;;;;-0.82;100.00;96232.19;4997097;28;20204;-70
2020/12/06 08:43:49;;;;;;;32.33;26.17;;;;;;;-0.72;100.00;96240.81;4997812;28;20204;-70
2020/12/06 08:46:18;;;;;;;29.20;24.63;;;;;;;-0.77;100.00;96258.59;4959943;28;20223;-67
2020/12/06 08:48:46;;;;;;;29.10;24.53;;;;;;;-0.83;100.00;96262.56;5001874;28;20295;-70
2020/12/06 08:51:30;;;;;;;28.67;24.80;;;;;;;-0.85;100.00;96271.47;5004703;28;20227;-69
2020/12/06 08:53:58;;;;;;;30.27;25.63;;;;;;;-0.87;100.00;96274.19;5000483;28;20574;-70
2020/12/06 08:56:32;;;;;;;32.40;26.50;;;;;;;-0.81;100.00;96280.66;4997948;28;20739;-69
2020/12/06 08:59:08;;;;;;;30.50;25.47;;;;;;;-0.72;100.00;96277.22;5008084;28;20235;-70
2020/12/06 09:01:46;;;;;;;28.97;25.80;;;;;;;-0.63;100.00;96259.97;4984612;28;20325;-70
2020/12/06 09:04:13;;;;;;;27.70;24.17;;;;;;;-0.57;100.00;96245.59;4970666;28;20244;-67
2020/12/06 09:06:40;;;;;;;28.90;25.40;;;;;;;-0.53;100.00;96228.75;5005704;28;20217;-69
2020/12/06 09:09:08;;;;;;;33.07;26.57;;;;;;;-0.56;100.00;96226.44;5002355;28;20200;-68
2020/12/06 09:11:35;;;;;;;32.23;27.53;;;;;;;-0.66;100.00;96240.25;4999011;28;20593;-69
2020/12/06 09:14:02;;;;;;;30.77;26.50;;;;;;;-0.52;100.00;96240.81;5000800;28;20215;-70
2020/12/06 09:16:30;;;;;;;30.00;26.10;;;;;;;-0.57;100.00;96241.22;4985147;28;20205;-71
2020/12/06 09:18:58;;;;;;;32.50;29.10;;;;;;;-0.61;100.00;96247.66;4973371;28;20224;-70
2020/12/06 09:21:25;;;;;;;32.97;28.83;;;;;;;-0.50;100.00;96244.09;5003908;28;20713;-70
2020/12/06 09:23:52;;;;;;;28.70;24.47;;;;;;;-0.32;100.00;96259.84;4999191;28;20204;-70
2020/12/06 09:26:19;;;;;;;29.70;25.70;;;;;;;-0.37;100.00;96260.25;4994385;28;20208;-68
2020/12/06 09:28:46;;;;;;;28.87;25.90;;;;;;;-0.34;100.00;96272.19;5000290;28;20605;-70
2020/12/06 09:31:13;;;;;;;28.73;25.73;;;;;;;-0.09;100.00;96273.38;4989422;28;20216;-68
2020/12/06 09:33:40;;;;;;;31.47;26.27;;;;;;;-0.10;100.00;96270.91;4953959;28;20442;-69
2020/12/06 09:36:12;;;;;;;29.47;26.33;;;;;;;-0.20;100.00;96273.50;5004672;28;20444;-66
2020/12/06 09:38:39;;;;;;;29.77;25.27;;;;;;;0.00;100.00;96279.53;4999053;28;20636;-69
2020/12/06 09:41:07;;;;;;;27.00;24.20;;;;;;;-0.06;100.00;96288.72;5000082;28;20205;-68
2020/12/06 09:43:34;;;;;;;27.57;24.77;;;;;;;-0.02;100.00;96297.91;4995738;28;20792;-69
2020/12/06 09:46:01;;;;;;;26.57;23.37;;;;;;;-0.11;100.00;96288.31;4997299;28;20225;-70
2020/12/06 09:48:28;;;;;;;29.00;23.27;;;;;;;-0.18;100.00;96279.44;4944810;28;22390;-72
2020/12/06 09:50:56;;;;;;;26.67;23.77;;;;;;;-0.11;100.00;96279.66;5003520;28;20624;-71
2020/12/06 09:53:24;;;;;;;28.70;25.63;;;;;;;0.11;100.00;96278.53;4999268;28;20201;-69
2020/12/06 09:55:51;;;;;;;29.03;25.90;;;;;;;0.16;100.00;96267.69;4991605;28;20233;-67
2020/12/06 09:58:18;;;;;;;29.87;26.63;;;;;;;0.12;100.00;96260.19;4991633;28;20437;-71
2020/12/06 10:00:45;;;;;;;30.57;26.43;;;;;;;-0.04;100.00;96259.91;4997331;28;20602;-68
2020/12/06 10:03:12;;;;;;;30.40;27.17;;;;;;;0.13;100.00;96250.56;4988308;28;20797;-71
2020/12/06 10:05:39;;;;;;;28.70;25.60;;;;;;;0.07;100.00;96251.97;4966603;28;20474;-70
2020/12/06 10:08:06;;;;;;;27.80;24.40;;;;;;;0.38;100.00;96251.75;4996444;28;20276;-70
2020/12/06 10:10:34;;;;;;;26.67;23.93;;;;;;;0.35;100.00;96246.78;4996745;28;20591;-69
2020/12/06 10:13:02;;;;;;;27.70;24.93;;;;;;;0.26;100.00;96245.88;4993156;28;20267;-67
2020/12/06 10:15:30;;;;;;;29.57;26.17;;;;;;;0.37;100.00;96238.84;4996237;28;20822;-70
2020/12/06 10:17:57;;;;;;;27.37;23.33;;;;;;;0.61;100.00;96230.50;4992387;28;20223;-66
2020/12/06 10:20:24;;;;;;;25.73;22.77;;;;;;;0.36;100.00;96238.00;4955440;28;20339;-70
2020/12/06 10:22:51;;;;;;;25.90;23.07;;;;;;;0.47;100.00;96237.00;5000205;28;20211;-67
2020/12/06 10:25:18;;;;;;;25.43;22.37;;;;;;;0.50;100.00;96236.72;4990824;28;20241;-70
2020/12/06 10:27:46;;;;;;;26.07;23.33;;;;;;;0.43;100.00;96233.88;4996403;28;20440;-68
2020/12/06 10:30:13;;;;;;;28.77;24.43;;;;;;;0.40;100.00;96231.56;4993289;28;20227;-68
2020/12/06 10:32:40;;;;;;;26.87;22.33;;;;;;;0.38;100.00;96236.09;4993437;28;20213;-69
2020/12/06 10:35:07;;;;;;;26.00;22.33;;;;;;;0.48;100.00;96237.84;4952741;28;21677;-69
2020/12/06 10:37:34;;;;;;;24.80;22.20;;;;;;;0.65;100.00;96231.03;4998030;28;20205;-69
2020/12/06 10:40:01;;;;;;;24.87;20.87;;;;;;;0.55;100.00;96236.28;4993553;28;20638;-67
2020/12/06 10:42:28;;;;;;;26.40;22.13;;;;;;;0.56;100.00;96228.31;4993488;28;20710;-70
2020/12/06 10:44:57;;;;;;;25.57;22.77;;;;;;;0.51;100.00;96237.53;4994717;28;20225;-68
2020/12/06 10:47:24;;;;;;;26.43;23.47;;;;;;;0.68;100.00;96230.75;4994990;28;20227;-70
2020/12/06 10:49:51;;;;;;;26.17;23.43;;;;;;;0.68;100.00;96222.91;4993654;28;20214;-68
2020/12/06 10:52:18;;;;;;;29.00;24.93;;;;;;;0.74;100.00;96237.16;4962675;28;20445;-70
2020/12/06 10:54:47;;;;;;;30.77;24.03;;;;;;;0.70;100.00;96226.19;5000582;28;20229;-67
2020/12/06 10:57:14;;;;;;;28.03;22.37;;;;;;;0.73;100.00;96228.53;4992516;28;20228;-70
2020/12/06 10:59:41;;;;;;;27.83;22.83;;;;;;;0.81;100.00;96227.78;4992444;28;20225;-69
2020/12/06 11:02:09;;;;;;;27.30;22.70;;;;;;;0.67;100.00;96237.72;4993665;28;20578;-68
2020/12/06 11:04:36;;;;;;;25.83;22.13;;;;;;;0.92;100.00;96234.56;4994218;28;20225;-68
2020/12/06 11:07:03;;;;;;;28.03;22.10;;;;;;;0.86;100.00;96239.41;4963247;28;20243;-66
2020/12/06 11:09:30;;;;;;;24.83;20.30;;;;;;;0.78;100.00;96241.13;4997663;28;20205;-70
2020/12/06 11:11:57;;;;;;;25.77;21.33;;;;;;;0.79;100.00;96240.97;4997736;28;20209;-66
2020/12/06 11:14:25;;;;;;;25.30;21.13;;;;;;;0.66;100.00;96253.53;4994481;28;20224;-69